Sundancer — WDI5046 — position and weather

sailwx.info

Track history (hours):
 
Tides and Currents Weather Stations Pressure Air Temp Water Temp Dewpoint Dewpoint Depression Visibility Wind Speed Wind Dir Waves Ship Positions

Sundancer

Owner: Cornucopia Cruise LIne, Perth Amboy, NJ. More information available from US FCC via Universal Licensing System and Coast Guard Vessel Documentation Center.

Last reported at 2018-Jun-21 01:00 UTC. Time now 2018-Jun-21 01:01 UTC.
Position N 40°42' W 074°02'.

Length 34 m; draft 1.3 m.

Type: Passenger vessel. MMSI: 367704620.

Date/timePositionNaut miles runAvg speedWind from/ knotsBaromVisibWave heightAir tempDewpointWater temp
2018-Jun-21 01:00N 40°42' W 074°02'1 1.4
2018-Jun-21 00:30N 40°43' W 074°02'1 2.0
2018-Jun-21 00:01N 40°42' W 074°01'2 4.4
2018-Jun-20 23:30N 40°44' W 074°01'2 1.7
2018-Jun-20 22:31N 40°46' W 074°00'0 8.8
2018-Jun-20 22:29N 40°45' W 074°01'1 0.1
2018-Jun-20 14:56N 40°45' W 074°01'0 0.0
2018-Jun-20 14:00N 40°45' W 074°01'0 0.0
2018-Jun-20 13:12N 40°45' W 074°01'0 0.0
2018-Jun-20 12:37N 40°45' W 074°01'0 0.0
2018-Jun-20 11:49N 40°45' W 074°01'0 0.0
2018-Jun-20 11:25N 40°45' W 074°01'0 0.0
2018-Jun-20 10:59N 40°45' W 074°01'0 0.0
2018-Jun-20 10:29N 40°45' W 074°01'0 0.0
2018-Jun-20 09:58N 40°45' W 074°01'0 0.0
2018-Jun-20 09:29N 40°45' W 074°01'0 0.0
2018-Jun-20 08:59N 40°45' W 074°01'0 0.0
2018-Jun-20 07:57N 40°45' W 074°01'0 0.0
2018-Jun-20 06:56N 40°45' W 074°01'0 0.0
2018-Jun-20 06:28N 40°45' W 074°01'0 0.0
2018-Jun-20 06:01N 40°45' W 074°01'0 0.0
2018-Jun-20 05:28N 40°45' W 074°01'0 0.0
2018-Jun-20 04:59N 40°45' W 074°01'0 0.0
2018-Jun-20 04:25N 40°45' W 074°01'0 0.0
2018-Jun-20 03:58N 40°45' W 074°01'0 0.0
2018-Jun-20 03:30N 40°45' W 074°01'0 0.0
2018-Jun-20 03:00N 40°45' W 074°01'0 0.0
2018-Jun-20 02:29N 40°45' W 074°01'0 0.0
2018-Jun-20 00:58N 40°45' W 074°01'0 0.0
2018-Jun-20 00:27N 40°45' W 074°01'0 0.3
2018-Jun-20 00:00N 40°45' W 074°01'2 4.5
2018-Jun-19 23:30N 40°43' W 074°01'2 4.1
2018-Jun-19 23:00N 40°41' W 074°03'1 3.0
2018-Jun-19 22:31N 40°42' W 074°02'3 5.8
2018-Jun-19 22:01N 40°45' W 074°01'0 0.0
2018-Jun-19 21:30N 40°45' W 074°01'0 0.0
2018-Jun-19 21:00N 40°45' W 074°01'0 0.0
2018-Jun-19 20:30N 40°45' W 074°01'0 0.0
2018-Jun-19 19:58N 40°45' W 074°01'0 0.0
2018-Jun-19 19:18N 40°45' W 074°01'0 0.0
2018-Jun-19 18:57N 40°45' W 074°01'0 0.0
2018-Jun-19 18:30N 40°45' W 074°01'0 0.0
2018-Jun-19 17:59N 40°45' W 074°01'0 0.0
2018-Jun-19 17:30N 40°45' W 074°01'0 0.0
2018-Jun-19 16:59N 40°45' W 074°01'0 0.0
2018-Jun-19 16:28N 40°45' W 074°01'0 0.0
2018-Jun-19 15:56N 40°45' W 074°01'0 0.0
2018-Jun-19 15:29N 40°45' W 074°01'0 0.0
2018-Jun-19 15:00N 40°45' W 074°01'0 0.0
2018-Jun-19 04:37N 40°45' W 074°01'0 3.7
2018-Jun-19 04:30N 40°45' W 074°01'5 9.5
2018-Jun-19 04:01N 40°40' W 074°01'  
Track history (hours):
 
Tides and Currents Weather Stations Pressure Air Temp Water Temp Dewpoint Dewpoint Depression Visibility Wind Speed Wind Dir Waves Ship Positions

Sundancer

Owner: Cornucopia Cruise LIne, Perth Amboy, NJ. More information available from US FCC via Universal Licensing System and Coast Guard Vessel Documentation Center.

Last reported at 2018-Jun-21 01:00 UTC. Time now 2018-Jun-21 01:01 UTC.
Position N 40°42' W 074°02'.

Length 34 m; draft 1.3 m.

Type: Passenger vessel. MMSI: 367704620.

Date/timePositionNaut miles runAvg speedWind from/ knotsBaromVisibWave heightAir tempDewpointWater temp
2018-Jun-21 01:00N 40°42' W 074°02'1 1.4
2018-Jun-21 00:30N 40°43' W 074°02'1 2.0
2018-Jun-21 00:01N 40°42' W 074°01'2 4.4
2018-Jun-20 23:30N 40°44' W 074°01'2 1.7
2018-Jun-20 22:31N 40°46' W 074°00'0 8.8
2018-Jun-20 22:29N 40°45' W 074°01'1 0.1
2018-Jun-20 14:56N 40°45' W 074°01'0 0.0
2018-Jun-20 14:00N 40°45' W 074°01'0 0.0
2018-Jun-20 13:12N 40°45' W 074°01'0 0.0
2018-Jun-20 12:37N 40°45' W 074°01'0 0.0
2018-Jun-20 11:49N 40°45' W 074°01'0 0.0
2018-Jun-20 11:25N 40°45' W 074°01'0 0.0
2018-Jun-20 10:59N 40°45' W 074°01'0 0.0
2018-Jun-20 10:29N 40°45' W 074°01'0 0.0
2018-Jun-20 09:58N 40°45' W 074°01'0 0.0
2018-Jun-20 09:29N 40°45' W 074°01'0 0.0
2018-Jun-20 08:59N 40°45' W 074°01'0 0.0
2018-Jun-20 07:57N 40°45' W 074°01'0 0.0
2018-Jun-20 06:56N 40°45' W 074°01'0 0.0
2018-Jun-20 06:28N 40°45' W 074°01'0 0.0
2018-Jun-20 06:01N 40°45' W 074°01'0 0.0
2018-Jun-20 05:28N 40°45' W 074°01'0 0.0
2018-Jun-20 04:59N 40°45' W 074°01'0 0.0
2018-Jun-20 04:25N 40°45' W 074°01'0 0.0
2018-Jun-20 03:58N 40°45' W 074°01'0 0.0
2018-Jun-20 03:30N 40°45' W 074°01'0 0.0
2018-Jun-20 03:00N 40°45' W 074°01'0 0.0
2018-Jun-20 02:29N 40°45' W 074°01'0 0.0
2018-Jun-20 00:58N 40°45' W 074°01'0 0.0
2018-Jun-20 00:27N 40°45' W 074°01'0 0.3
2018-Jun-20 00:00N 40°45' W 074°01'2 4.5
2018-Jun-19 23:30N 40°43' W 074°01'2 4.1
2018-Jun-19 23:00N 40°41' W 074°03'1 3.0
2018-Jun-19 22:31N 40°42' W 074°02'3 5.8
2018-Jun-19 22:01N 40°45' W 074°01'0 0.0
2018-Jun-19 21:30N 40°45' W 074°01'0 0.0
2018-Jun-19 21:00N 40°45' W 074°01'0 0.0
2018-Jun-19 20:30N 40°45' W 074°01'0 0.0
2018-Jun-19 19:58N 40°45' W 074°01'0 0.0
2018-Jun-19 19:18N 40°45' W 074°01'0 0.0
2018-Jun-19 18:57N 40°45' W 074°01'0 0.0
2018-Jun-19 18:30N 40°45' W 074°01'0 0.0
2018-Jun-19 17:59N 40°45' W 074°01'0 0.0
2018-Jun-19 17:30N 40°45' W 074°01'0 0.0
2018-Jun-19 16:59N 40°45' W 074°01'0 0.0
2018-Jun-19 16:28N 40°45' W 074°01'0 0.0
2018-Jun-19 15:56N 40°45' W 074°01'0 0.0
2018-Jun-19 15:29N 40°45' W 074°01'0 0.0
2018-Jun-19 15:00N 40°45' W 074°01'0 0.0
2018-Jun-19 04:37N 40°45' W 074°01'0 3.7
2018-Jun-19 04:30N 40°45' W 074°01'5 9.5
2018-Jun-19 04:01N 40°40' W 074°01'  

Dump ship's entire track history